航空気象通報

ウインドサーファーのための航空気象通報による風予報です。

5/3-5/5の航空気象通報

2017年05月03日 21時18分06秒 | TAF
羽田空港
TAF RJTT 031105Z 0312/0418 18015KT 9999 FEW030
日本時間3日21時-5日03時:180度から15ノットの風


静岡空港
TAF RJNS 031107Z 0312/0418 36004KT 9999 FEW020
BECMG 0322/0400 10008KT
BECMG 0412/0415 34004KT
日本時間3日21時-4日07時:360度から4ノットの風
07-09時:風が変化
09-21時:100度から8ノットの風
21-24時:風が変化
5日00-03時:340度から4ノットの風


福岡空港
TAF RJFF 031106Z 0312/0418 14005KT 9999 FEW040
日本時間3日21時-5日03時:140度から5ノットの風


那覇空港
TAF ROAH 031108Z 0312/0418 18007KT 9999 FEW008 BKN015
TEMPO 0315/0400 FEW006 BKN008
TEMPO 0412/0418 FEW006 BKN008
日本時間3日21時-5日03時:180度から7ノットの風


石垣空港
TAF ROIG 031114Z 0312/0418 08003KT 9999 FEW015 BKN030
BECMG 0313/0315 18005KT
日本時間3日21-22時:080度から3ノットの風
22-24時:風が変化
4日00時-5日03時:180度から5ノットの風


マウイのカフルイ空港
PHOG 031120Z 0312/0412 04005KT P6SM FEW050
FM032100 04012G20KT P6SM SCT060
FM040500 04007KT P6SM FEW050 AMD LTD TO VIS AND WIND TIL 031600
ハワイ時間3日02-11時:040度から5ノットの風
11-19時:040度から12ノット、突風20ノット
19時-4日02時:040度から7ノットの風


サイパン空港
TAF PGSN 031134Z 0312/0412 08014KT P6SM VCSH FEW020 SCT050
マリアナ時間3日22時-4日22時:080度から14ノットの風

ジャンル:
お天気
コメント   この記事についてブログを書く
この記事をはてなブックマークに追加
« 5/2-5/4の航空気象通報 | トップ | 5/4-5/6の航空気象通報 »
最近の画像もっと見る

コメントを投稿

ブログ作成者から承認されるまでコメントは反映されません。

コメント利用規約に同意の上コメント投稿を行ってください。

数字4桁を入力し、投稿ボタンを押してください。

あわせて読む

トラックバック

この記事のトラックバック  Ping-URL
ブログ作成者から承認されるまでトラックバックは反映されません。
  • 30日以上前の記事に対するトラックバックは受け取らないよう設定されております。
  • 送信元の記事内容が半角英数のみのトラックバックは受け取らないよう設定されております。
  • このブログへのリンクがない記事からのトラックバックは受け取らないよう設定されております。
  • ※ブログ管理者のみ、編集画面で設定の変更が可能です。